Station Historical Data
Daily Summary for January 5, 2018 Units:  Metric    English   Both
« Previous Day
Next Day »
Daily Weekly Monthly Yearly Custom
  High: Low: Average:
Temperature: -17.8 °C -18.7 °C -16.8 °C
Dew Point: -17.8 °C -22.2 °C -20.3 °C
Humidity: Humidity% 62% 74%
Wind Speed: 0km/h 3.2km/h 10.1km/h
Wind Gust: 0km/h - -
Wind- - West
Pressure: 0 hPa 1013.8 hPa -
Precipitation: 0 mm    
Historical Graphs
 
 
Tabular Data for January 5, 2018
Time Temperature Dew Point Pressure Wind Wind Speed Wind Gust Humidity Rainfall Rate (Hourly)
-17.8 °C -17.8 °C 0 hPa Calm     Humidity% 0 mm
00:09 -15.8 °C -18.5 °C 1013.8 hPa WNW 24.1 km/h 25.7 km/h 80% 0 mm
00:14 -15.8 °C -18.5 °C 1014.1 hPa WNW 12.9 km/h 29 km/h 80% 0 mm
00:19 -15.9 °C -18.6 °C 1014.1 hPa West 6.4 km/h 27.4 km/h 80% 0 mm
00:24 -15.9 °C -18.6 °C 1014.1 hPa NNW 11.3 km/h 22.5 km/h 80% 0 mm
00:29 -15.9 °C -18.6 °C 1014.1 hPa NW 14.5 km/h 22.5 km/h 80% 0 mm
00:39 -15.9 °C -18.6 °C 1014.1 hPa NW 11.3 km/h 25.7 km/h 80% 0 mm
00:44 -15.9 °C -18.6 °C 1014.1 hPa WNW 9.7 km/h 20.9 km/h 80% 0 mm
00:54 -15.9 °C -18.7 °C 1014.1 hPa NW 11.3 km/h 24.1 km/h 79% 0 mm
00:59 -16 °C -18.8 °C 1014.1 hPa West 12.9 km/h 20.9 km/h 79% 0 mm
01:04 -16 °C -18.8 °C 1014.1 hPa WNW 4.8 km/h 19.3 km/h 79% 0 mm
01:09 -15.9 °C -18.7 °C 1014.1 hPa NW 9.7 km/h 25.7 km/h 79% 0 mm
01:14 -15.9 °C -18.6 °C 1014.1 hPa WNW 6.4 km/h 20.9 km/h 80% 0 mm
01:19 -15.9 °C -18.6 °C 1014.1 hPa WNW 9.7 km/h 25.7 km/h 80% 0 mm
01:24 -15.9 °C -18.6 °C 1014.4 hPa WNW 9.7 km/h 25.7 km/h 80% 0 mm
01:34 -16 °C -18.5 °C 1014.4 hPa WNW 17.7 km/h 19.3 km/h 81% 0 mm
01:39 -16.1 °C -18.6 °C 1014.4 hPa WNW 9.7 km/h 20.9 km/h 81% 0 mm
01:44 -16.2 °C -18.7 °C 1014.4 hPa WNW 9.7 km/h 20.9 km/h 81% 0 mm
01:49 -16.2 °C -18.7 °C 1014.4 hPa WNW 8 km/h 24.1 km/h 81% 0 mm
01:54 -16.2 °C -18.7 °C 1014.8 hPa WNW 11.3 km/h 24.1 km/h 81% 0 mm
01:59 -16.3 °C -18.8 °C 1014.8 hPa WNW 9.7 km/h 22.5 km/h 81% 0 mm
02:04 -16.4 °C -18.9 °C 1014.8 hPa WNW 8 km/h 19.3 km/h 81% 0 mm
02:09 -16.6 °C -19.1 °C 1014.8 hPa West 9.7 km/h 19.3 km/h 81% 0 mm
02:14 -16.7 °C -19.2 °C 1014.8 hPa West 9.7 km/h 14.5 km/h 81% 0 mm
02:19 -16.8 °C -19.3 °C 1014.8 hPa WSW 4.8 km/h 11.3 km/h 81% 0 mm
02:24 -16.8 °C -19.3 °C 1015.1 hPa West 6.4 km/h 12.9 km/h 81% 0 mm
02:29 -16.8 °C -19.3 °C 1015.1 hPa West 9.7 km/h 19.3 km/h 81% 0 mm
02:34 -16.7 °C -19 °C 1015.1 hPa NW 14.5 km/h 19.3 km/h 82% 0 mm
02:39 -16.6 °C -18.9 °C 1014.8 hPa West 8 km/h 19.3 km/h 82% 0 mm
02:44 -16.4 °C -18.8 °C 1014.8 hPa WSW 11.3 km/h 25.7 km/h 82% 0 mm
02:49 -16.4 °C -18.7 °C 1015.1 hPa WNW 12.9 km/h 25.7 km/h 82% 0 mm
02:54 -16.4 °C -18.7 °C 1015.1 hPa WNW 9.7 km/h 19.3 km/h 82% 0 mm
02:59 -16.3 °C -18.7 °C 1015.1 hPa West 12.9 km/h 22.5 km/h 82% 0 mm
03:04 -16.3 °C -18.7 °C 1015.1 hPa WNW 11.3 km/h 22.5 km/h 82% 0 mm
03:09 -16.3 °C -18.7 °C 1015.5 hPa WNW 9.7 km/h 17.7 km/h 82% 0 mm
03:19 -16.4 °C -18.7 °C 1015.5 hPa NW 8 km/h 24.1 km/h 82% 0 mm
03:29 -16.5 °C -18.7 °C 1015.5 hPa NW 12.9 km/h 27.4 km/h 83% 0 mm
03:34 -16.6 °C -18.9 °C 1015.5 hPa NW 12.9 km/h 25.7 km/h 82% 0 mm
03:39 -16.7 °C -19.1 °C 1015.5 hPa NW 12.9 km/h 25.7 km/h 82% 0 mm
03:44 -16.8 °C -19.1 °C 1015.5 hPa NW 12.9 km/h 25.7 km/h 82% 0 mm
03:54 -16.9 °C -19.2 °C 1015.5 hPa NW 12.9 km/h 29 km/h 82% 0 mm
03:59 -16.9 °C -19.3 °C 1015.5 hPa WNW 12.9 km/h 29 km/h 82% 0 mm
04:04 -17 °C -19.3 °C 1015.5 hPa WNW 12.9 km/h 29 km/h 82% 0 mm
04:09 -17.1 °C -19.4 °C 1015.8 hPa NW 11.3 km/h 29 km/h 82% 0 mm
04:19 -17.1 °C -19.4 °C 1015.5 hPa NW 24.1 km/h 33.8 km/h 82% 0 mm
04:29 -17.2 °C -19.5 °C 1015.5 hPa NNE 11.3 km/h 22.5 km/h 82% 0 mm
04:39 -17.2 °C -19.6 °C 1015.8 hPa WNW 9.7 km/h 20.9 km/h 82% 0 mm
04:44 -17.2 °C -19.6 °C 1015.8 hPa West 14.5 km/h 29 km/h 82% 0 mm
04:49 -17.3 °C -19.6 °C 1015.8 hPa NNW 16.1 km/h 24.1 km/h 82% 0 mm
04:54 -17.3 °C -19.6 °C 1015.8 hPa WNW 11.3 km/h 30.6 km/h 82% 0 mm
04:59 -17.3 °C -19.7 °C 1016.1 hPa WNW 11.3 km/h 27.4 km/h 82% 0 mm
05:09 -17.3 °C -19.7 °C 1016.1 hPa WNW 8 km/h 19.3 km/h 82% 0 mm
05:14 -17.3 °C -19.6 °C 1016.1 hPa NW 9.7 km/h 27.4 km/h 82% 0 mm
05:19 -17.3 °C -19.6 °C 1016.1 hPa NW 6.4 km/h 24.1 km/h 82% 0 mm
05:24 -17.3 °C -19.6 °C 1016.1 hPa NW 9.7 km/h 25.7 km/h 82% 0 mm
05:34 -17.3 °C -19.6 °C 1016.1 hPa WNW 9.7 km/h 19.3 km/h 82% 0 mm
05:44 -17.3 °C -19.6 °C 1016.5 hPa WNW 9.7 km/h 24.1 km/h 82% 0 mm
05:49 -17.3 °C -19.6 °C 1016.5 hPa WNW 9.7 km/h 24.1 km/h 82% 0 mm
05:54 -17.2 °C -19.6 °C 1016.5 hPa NW 6.4 km/h 14.5 km/h 82% 0 mm
06:04 -17.3 °C -19.6 °C 1016.8 hPa NNW 14.5 km/h 25.7 km/h 82% 0 mm
06:14 -17.3 °C -19.6 °C 1016.8 hPa NW 11.3 km/h 22.5 km/h 82% 0 mm
06:19 -17.3 °C -19.6 °C 1016.8 hPa NW 12.9 km/h 25.7 km/h 82% 0 mm
06:24 -17.2 °C -19.6 °C 1016.8 hPa NW 12.9 km/h 25.7 km/h 82% 0 mm
06:29 -17.2 °C -19.6 °C 1016.8 hPa NW 11.3 km/h 24.1 km/h 82% 0 mm
06:39 -17.2 °C -19.5 °C 1016.8 hPa NW 11.3 km/h 27.4 km/h 82% 0 mm
06:44 -17.2 °C -19.5 °C 1017.2 hPa NW 12.9 km/h 27.4 km/h 82% 0 mm
06:49 -17.2 °C -19.5 °C 1017.2 hPa WNW 9.7 km/h 20.9 km/h 82% 0 mm
06:59 -17.2 °C -19.7 °C 1017.2 hPa NW 8 km/h 24.1 km/h 81% 0 mm
07:04 -17.1 °C -19.6 °C 1017.5 hPa NW 9.7 km/h 24.1 km/h 81% 0 mm
07:09 -17.1 °C -19.6 °C 1017.5 hPa NW 8 km/h 24.1 km/h 81% 0 mm
07:19 -17.6 °C -20.2 °C 1017.5 hPa West 8 km/h 19.3 km/h 80% 0 mm
07:24 -17.8 °C -20.4 °C 1017.8 hPa West 9.7 km/h 19.3 km/h 80% 0 mm
07:34 -18.1 °C -20.7 °C 1017.8 hPa West 6.4 km/h 16.1 km/h 80% 0 mm
07:39 -18.2 °C -20.7 °C 1017.8 hPa West 6.4 km/h 14.5 km/h 81% 0 mm
07:44 -18.3 °C -20.7 °C 1018.2 hPa West 8 km/h 16.1 km/h 81% 0 mm
07:49 -18.3 °C -20.8 °C 1018.2 hPa West 8 km/h 16.1 km/h 81% 0 mm
07:54 -18.4 °C -20.8 °C 1018.2 hPa West 9.7 km/h 19.3 km/h 81% 0 mm
07:59 -18.4 °C -20.9 °C 1018.2 hPa West 4.8 km/h 17.7 km/h 81% 0 mm
08:04 -18.5 °C -20.9 °C 1018.2 hPa West 9.7 km/h 17.7 km/h 81% 0 mm
08:09 -18.5 °C -20.9 °C 1018.5 hPa WNW 9.7 km/h 17.7 km/h 81% 0 mm
08:14 -18.6 °C -21 °C 1018.5 hPa WSW 12.9 km/h 14.5 km/h 81% 0 mm
08:19 -18.6 °C -21 °C 1018.5 hPa West 9.7 km/h 16.1 km/h 81% 0 mm
08:24 -18.6 °C -21 °C 1018.5 hPa West 8 km/h 16.1 km/h 81% 0 mm
08:29 -18.6 °C -21 °C 1018.5 hPa West 6.4 km/h 16.1 km/h 81% 0 mm
08:34 -18.6 °C -21.1 °C 1018.5 hPa West 6.4 km/h 16.1 km/h 81% 0 mm
08:39 -18.6 °C -21.1 °C 1018.5 hPa West 6.4 km/h 14.5 km/h 81% 0 mm
08:44 -18.6 °C -21.1 °C 1018.5 hPa West 6.4 km/h 16.1 km/h 81% 0 mm
08:49 -18.7 °C -21.1 °C 1018.5 hPa West 8 km/h 16.1 km/h 81% 0 mm
08:54 -18.6 °C -21.1 °C 1018.8 hPa West 8 km/h 19.3 km/h 81% 0 mm
08:59 -18.7 °C -21.1 °C 1018.8 hPa West 8 km/h 19.3 km/h 81% 0 mm
09:04 -18.6 °C -21.1 °C 1018.8 hPa West 8 km/h 17.7 km/h 81% 0 mm
09:14 -18.6 °C -21.1 °C 1018.8 hPa West 8 km/h 14.5 km/h 81% 0 mm
09:19 -18.6 °C -21 °C 1018.8 hPa WNW 12.9 km/h 19.3 km/h 81% 0 mm
09:24 -18.4 °C -20.8 °C 1019.2 hPa West 8 km/h 19.3 km/h 81% 0 mm
09:29 -18.3 °C -20.7 °C 1019.2 hPa West 8 km/h 16.1 km/h 81% 0 mm
09:34 -18.1 °C -20.6 °C 1019.2 hPa SW 4.8 km/h 12.9 km/h 81% 0 mm
09:39 -17.9 °C -20.4 °C 1019.2 hPa West 4.8 km/h 17.7 km/h 81% 0 mm
09:44 -17.9 °C -20.3 °C 1019.2 hPa West 8 km/h 17.7 km/h 81% 0 mm
09:49 -17.8 °C -20.2 °C 1019.5 hPa West 6.4 km/h 17.7 km/h 81% 0 mm
10:04 -17.4 °C -20 °C 1019.5 hPa West 6.4 km/h 14.5 km/h 80% 0 mm
10:09 -17.3 °C -19.9 °C 1019.5 hPa West 8 km/h 14.5 km/h 80% 0 mm
10:14 -17.1 °C -19.7 °C 1019.5 hPa West 4.8 km/h 16.1 km/h 80% 0 mm
10:19 -17.1 °C -19.9 °C 1019.5 hPa West 8 km/h 16.1 km/h 79% 0 mm
10:24 -17.1 °C -20.1 °C 1019.5 hPa West 8 km/h 17.7 km/h 78% 0 mm
10:29 -17 °C -19.9 °C 1019.9 hPa WNW 6.4 km/h 16.1 km/h 78% 0 mm
10:34 -16.8 °C -19.9 °C 1019.9 hPa West 8 km/h 16.1 km/h 77% 0 mm
10:39 -16.7 °C -19.8 °C 1019.9 hPa West 6.4 km/h 17.7 km/h 77% 0 mm
10:44 -16.6 °C -19.7 °C 1019.9 hPa West 11.3 km/h 19.3 km/h 77% 0 mm
10:49 -16.4 °C -19.6 °C 1019.9 hPa West 4.8 km/h 17.7 km/h 76% 0 mm
10:54 -16.3 °C -19.6 °C 1019.9 hPa West 8 km/h 17.7 km/h 76% 0 mm
10:59 -16.3 °C -19.5 °C 1019.9 hPa WSW 8 km/h 16.1 km/h 76% 0 mm
11:04 -16.2 °C -19.5 °C 1019.9 hPa West 9.7 km/h 16.1 km/h 76% 0 mm
11:09 -16.2 °C -19.4 °C 1019.9 hPa West 9.7 km/h 19.3 km/h 76% 0 mm
11:19 -16.1 °C -19.4 °C 1019.9 hPa WSW 9.7 km/h 17.7 km/h 75% 0 mm
11:24 -15.9 °C -19.3 °C 1019.5 hPa West 8 km/h 16.1 km/h 75% 0 mm
11:29 -15.8 °C -19.3 °C 1019.9 hPa West 8 km/h 16.1 km/h 75% 0 mm
11:34 -15.7 °C -19.2 °C 1019.9 hPa West 11.3 km/h 16.1 km/h 75% 0 mm
11:39 -15.8 °C -19.2 °C 1019.9 hPa West 8 km/h 17.7 km/h 75% 0 mm
11:44 -15.9 °C -19.3 °C 1019.9 hPa West 8 km/h 17.7 km/h 75% 0 mm
11:49 -15.8 °C -19.3 °C 1019.9 hPa West 9.7 km/h 14.5 km/h 75% 0 mm
11:54 -15.7 °C -19.2 °C 1019.9 hPa West 8 km/h 17.7 km/h 75% 0 mm
11:59 -15.7 °C -19.1 °C 1019.9 hPa West 14.5 km/h 19.3 km/h 75% 0 mm
12:09 -15.7 °C -19.2 °C 1019.9 hPa West 11.3 km/h 20.9 km/h 75% 0 mm
12:14 -15.8 °C -19.3 °C 1019.9 hPa West 9.7 km/h 25.7 km/h 74% 0 mm
12:19 -15.8 °C -19.3 °C 1019.9 hPa West 11.3 km/h 25.7 km/h 75% 0 mm
12:34 -15.8 °C -19.2 °C 1019.5 hPa WSW 8 km/h 16.1 km/h 75% 0 mm
12:39 -15.6 °C -19 °C 1019.5 hPa WNW 9.7 km/h 20.9 km/h 75% 0 mm
12:44 -15.5 °C -19.1 °C 1019.5 hPa West 11.3 km/h 22.5 km/h 74% 0 mm
12:49 -15.5 °C -19.2 °C 1019.9 hPa West 12.9 km/h 20.9 km/h 73% 0 mm
12:54 -15.7 °C -19.4 °C 1019.9 hPa West 11.3 km/h 20.9 km/h 73% 0 mm
12:59 -15.5 °C -19.2 °C 1019.9 hPa West 11.3 km/h 20.9 km/h 73% 0 mm
13:04 -15.4 °C -19.3 °C 1019.9 hPa West 9.7 km/h 20.9 km/h 72% 0 mm
13:09 -15.5 °C -19.6 °C 1019.9 hPa WSW 11.3 km/h 22.5 km/h 71% 0 mm
13:14 -15.6 °C -19.8 °C 1019.9 hPa WSW 11.3 km/h 22.5 km/h 70% 0 mm
13:19 -15.4 °C -19.8 °C 1019.9 hPa WSW 11.3 km/h 25.7 km/h 69% 0 mm
13:24 -15.1 °C -19.7 °C 1019.9 hPa West 12.9 km/h 25.7 km/h 68% 0 mm
13:29 -14.8 °C -19.6 °C 1019.9 hPa West 11.3 km/h 20.9 km/h 67% 0 mm
13:34 -14.8 °C -19.6 °C 1019.9 hPa West 11.3 km/h 20.9 km/h 67% 0 mm
13:39 -14.7 °C -19.6 °C 1019.9 hPa West 11.3 km/h 20.9 km/h 66% 0 mm
13:44 -14.6 °C -19.3 °C 1019.9 hPa West 19.3 km/h 20.9 km/h 67% 0 mm
13:49 -14.7 °C -19.7 °C 1019.9 hPa West 9.7 km/h 20.9 km/h 66% 0 mm
13:54 -14.7 °C -19.5 °C 1019.9 hPa West 11.3 km/h 20.9 km/h 67% 0 mm
13:59 -14.7 °C -19.4 °C 1019.9 hPa West 11.3 km/h 19.3 km/h 67% 0 mm
14:09 -14.8 °C -19.8 °C 1020.2 hPa West 11.3 km/h 25.7 km/h 66% 0 mm
14:14 -14.8 °C -19.7 °C 1019.9 hPa West 9.7 km/h 22.5 km/h 66% 0 mm
14:24 -14.7 °C -19.7 °C 1020.2 hPa SW 8 km/h 24.1 km/h 66% 0 mm
14:29 -14.7 °C -19.6 °C 1020.2 hPa West 12.9 km/h 27.4 km/h 66% 0 mm
14:34 -14.5 °C -19.4 °C 1020.2 hPa West 12.9 km/h 27.4 km/h 66% 0 mm
14:39 -14.5 °C -19.6 °C 1020.2 hPa West 14.5 km/h 25.7 km/h 65% 0 mm
14:44 -14.5 °C -19.8 °C 1020.2 hPa WSW 16.1 km/h 24.1 km/h 64% 0 mm
14:49 -14.6 °C -19.7 °C 1020.2 hPa West 12.9 km/h 24.1 km/h 65% 0 mm
14:59 -14.4 °C -19.6 °C 1020.5 hPa West 9.7 km/h 20.9 km/h 65% 0 mm
15:04 -14.6 °C -19.7 °C 1020.5 hPa SW 4.8 km/h 16.1 km/h 65% 0 mm
15:09 -14.8 °C -20.1 °C 1020.5 hPa WNW 12.9 km/h 20.9 km/h 64% 0 mm
15:14 -15.1 °C -20.4 °C 1020.5 hPa WSW 6.4 km/h 24.1 km/h 64% 0 mm
15:19 -15.1 °C -20.3 °C 1020.5 hPa West 11.3 km/h 24.1 km/h 64% 0 mm
15:24 -14.9 °C -20.2 °C 1020.5 hPa WNW 9.7 km/h 25.7 km/h 64% 0 mm
15:29 -14.9 °C -20.2 °C 1020.5 hPa SW 17.7 km/h 24.1 km/h 64% 0 mm
15:39 -15.2 °C -20.4 °C 1020.9 hPa West 12.9 km/h 27.4 km/h 64% 0 mm
15:44 -15.2 °C -20.5 °C 1020.9 hPa West 11.3 km/h 27.4 km/h 64% 0 mm
15:54 -15.3 °C -20.8 °C 1021.2 hPa West 11.3 km/h 20.9 km/h 63% 0 mm
16:04 -15.4 °C -20.8 °C 1021.2 hPa WNW 3.2 km/h 22.5 km/h 63% 0 mm
16:09 -15.5 °C -20.9 °C 1021.2 hPa SW 19.3 km/h 22.5 km/h 63% 0 mm
16:19 -15.7 °C -21.3 °C 1021.2 hPa West 12.9 km/h 22.5 km/h 62% 0 mm
16:24 -15.8 °C -21.2 °C 1021.6 hPa West 11.3 km/h 27.4 km/h 63% 0 mm
16:29 -15.9 °C -21.5 °C 1021.6 hPa SW 6.4 km/h 19.3 km/h 62% 0 mm
16:34 -15.9 °C -21.6 °C 1021.6 hPa NW 4.8 km/h 20.9 km/h 62% 0 mm
16:39 -16 °C -21.4 °C 1021.6 hPa West 9.7 km/h 20.9 km/h 63% 0 mm
16:44 -16.1 °C -21.6 °C 1021.6 hPa West 8 km/h 20.9 km/h 63% 0 mm
16:49 -16.2 °C -21.7 °C 1021.6 hPa West 11.3 km/h 22.5 km/h 63% 0 mm
16:54 -16.3 °C -21.7 °C 1021.6 hPa WSW 12.9 km/h 17.7 km/h 63% 0 mm
16:59 -16.4 °C -21.8 °C 1021.6 hPa West 9.7 km/h 27.4 km/h 63% 0 mm
17:04 -16.5 °C -21.7 °C 1021.9 hPa WNW 6.4 km/h 20.9 km/h 64% 0 mm
17:09 -16.6 °C -21.8 °C 1021.9 hPa WNW 12.9 km/h 22.5 km/h 64% 0 mm
17:14 -16.6 °C -21.8 °C 1021.9 hPa West 4.8 km/h 22.5 km/h 64% 0 mm
17:19 -16.7 °C -21.9 °C 1021.9 hPa West 4.8 km/h 19.3 km/h 64% 0 mm
17:24 -16.7 °C -21.9 °C 1021.9 hPa WSW 9.7 km/h 22.5 km/h 64% 0 mm
17:29 -16.8 °C -22.1 °C 1021.9 hPa West 9.7 km/h 22.5 km/h 64% 0 mm
17:39 -16.9 °C -22.1 °C 1022.2 hPa West 11.3 km/h 20.9 km/h 64% 0 mm
17:44 -16.9 °C -22.2 °C 1022.2 hPa West 9.7 km/h 19.3 km/h 64% 0 mm
17:49 -16.9 °C -22.2 °C 1022.2 hPa WSW 9.7 km/h 19.3 km/h 64% 0 mm
17:54 -17 °C -22 °C 1022.2 hPa WSW 8 km/h 20.9 km/h 65% 0 mm
17:59 -17.1 °C -22.1 °C 1022.2 hPa West 9.7 km/h 20.9 km/h 65% 0 mm
18:04 -17.1 °C -22.1 °C 1022.6 hPa West 9.7 km/h 19.3 km/h 65% 0 mm
18:09 -17.1 °C -22.1 °C 1022.6 hPa West 9.7 km/h 22.5 km/h 65% 0 mm
18:14 -17.1 °C -22.1 °C 1022.6 hPa WSW 11.3 km/h 22.5 km/h 65% 0 mm
18:19 -17.2 °C -22.2 °C 1022.6 hPa West 17.7 km/h 19.3 km/h 65% 0 mm
18:24 -17.2 °C -22 °C 1022.6 hPa West 12.9 km/h 24.1 km/h 66% 0 mm
18:29 -17.2 °C -22.1 °C 1022.6 hPa West 6.4 km/h 19.3 km/h 66% 0 mm
18:34 -17.3 °C -22.1 °C 1022.9 hPa West 3.2 km/h 20.9 km/h 66% 0 mm
18:39 -17.3 °C -22.2 °C 1022.9 hPa West 11.3 km/h 25.7 km/h 66% 0 mm
18:44 -17.3 °C -22.2 °C 1022.9 hPa West 9.7 km/h 25.7 km/h 66% 0 mm
18:49 -17.3 °C -22 °C 1022.9 hPa West 11.3 km/h 17.7 km/h 67% 0 mm
18:54 -17.3 °C -22 °C 1022.9 hPa SW 8 km/h 20.9 km/h 67% 0 mm
18:59 -17.4 °C -22.1 °C 1022.9 hPa West 9.7 km/h 20.9 km/h 67% 0 mm
19:04 -17.4 °C -22.1 °C 1023.2 hPa West 9.7 km/h 25.7 km/h 67% 0 mm
19:14 -17.4 °C -22.1 °C 1023.2 hPa WSW 9.7 km/h 20.9 km/h 67% 0 mm
19:19 -17.5 °C -22.2 °C 1023.2 hPa West 8 km/h 24.1 km/h 67% 0 mm
19:24 -17.5 °C -22.2 °C 1023.2 hPa West 11.3 km/h 27.4 km/h 67% 0 mm
19:29 -17.4 °C -22.1 °C 1023.2 hPa West 9.7 km/h 19.3 km/h 67% 0 mm
19:34 -17.6 °C -22.2 °C 1023.2 hPa West 12.9 km/h 20.9 km/h 67% 0 mm
19:44 -17.5 °C -22 °C 1023.6 hPa West 9.7 km/h 19.3 km/h 68% 0 mm
19:49 -17.6 °C -22.1 °C 1023.6 hPa West 11.3 km/h 20.9 km/h 68% 0 mm
19:54 -17.6 °C -22.1 °C 1023.6 hPa WSW 12.9 km/h 20.9 km/h 68% 0 mm
19:59 -17.6 °C -22.1 °C 1023.6 hPa WSW 8 km/h 20.9 km/h 68% 0 mm
20:09 -17.7 °C -22.2 °C 1023.6 hPa West 9.7 km/h 19.3 km/h 68% 0 mm
20:14 -17.7 °C -22.1 °C 1023.6 hPa West 12.9 km/h 22.5 km/h 69% 0 mm
20:19 -17.7 °C -22 °C 1023.6 hPa West 11.3 km/h 22.5 km/h 69% 0 mm
20:24 -17.6 °C -21.9 °C 1023.6 hPa West 11.3 km/h 22.5 km/h 69% 0 mm
20:29 -17.6 °C -22.1 °C 1023.6 hPa WSW 11.3 km/h 22.5 km/h 68% 0 mm
20:34 -17.7 °C -22.2 °C 1023.6 hPa WSW 9.7 km/h 22.5 km/h 68% 0 mm
20:39 -17.7 °C -22.1 °C 1023.6 hPa WSW 9.7 km/h 16.1 km/h 69% 0 mm
20:44 -17.8 °C -22.1 °C 1023.6 hPa WSW 11.3 km/h 19.3 km/h 69% 0 mm
20:49 -17.8 °C -22.2 °C 1023.6 hPa West 9.7 km/h 19.3 km/h 69% 0 mm
20:54 -17.8 °C -22.2 °C 1023.6 hPa SW 6.4 km/h 20.9 km/h 69% 0 mm
20:59 -17.8 °C -22.2 °C 1023.6 hPa West 9.7 km/h 19.3 km/h 69% 0 mm
21:04 -17.8 °C -22.2 °C 1023.6 hPa WSW 8 km/h 19.3 km/h 69% 0 mm
21:09 -17.8 °C -22.2 °C 1023.6 hPa West 6.4 km/h 20.9 km/h 69% 0 mm
21:14 -17.7 °C -22.1 °C 1023.6 hPa WSW 11.3 km/h 24.1 km/h 69% 0 mm
21:19 -17.7 °C -22 °C 1023.6 hPa WSW 12.9 km/h 24.1 km/h 69% 0 mm
21:24 -17.7 °C -22.1 °C 1023.6 hPa West 11.3 km/h 22.5 km/h 69% 0 mm
21:29 -17.7 °C -22 °C 1023.6 hPa West 4.8 km/h 20.9 km/h 69% 0 mm
21:34 -17.7 °C -22 °C 1023.6 hPa West 4.8 km/h 19.3 km/h 69% 0 mm
21:39 -17.7 °C -21.8 °C 1023.6 hPa West 9.7 km/h 22.5 km/h 70% 0 mm
21:49 -17.7 °C -21.9 °C 1023.6 hPa WSW 9.7 km/h 24.1 km/h 70% 0 mm
21:54 -17.7 °C -21.8 °C 1023.6 hPa WSW 11.3 km/h 24.1 km/h 70% 0 mm
21:59 -17.6 °C -21.6 °C 1023.6 hPa WSW 12.9 km/h 24.1 km/h 71% 0 mm
22:04 -17.6 °C -21.6 °C 1023.6 hPa West 11.3 km/h 20.9 km/h 71% 0 mm
22:09 -17.7 °C -21.7 °C 1023.6 hPa West 9.7 km/h 20.9 km/h 71% 0 mm
22:10 -17.7 °C -21.7 °C 1023.6 hPa SW 11.3 km/h 14.5 km/h 71% 0 mm
22:19 -17.6 °C -21.6 °C 1023.6 hPa WSW 12.9 km/h 27.4 km/h 71% 0 mm
22:24 -17.6 °C -21.6 °C 1023.9 hPa West 11.3 km/h 27.4 km/h 71% 0 mm
22:34 -17.6 °C -21.6 °C 1023.9 hPa West 12.9 km/h 27.4 km/h 71% 0 mm
22:39 -17.5 °C -21.5 °C 1023.9 hPa West 12.9 km/h 24.1 km/h 71% 0 mm
22:49 -17.4 °C -21.4 °C 1023.9 hPa WSW 8 km/h 27.4 km/h 71% 0 mm
22:50 -17.4 °C -21.4 °C 1023.9 hPa West 11.3 km/h 27.4 km/h 71% 0 mm
22:59 -17.3 °C -21.3 °C 1023.9 hPa West 11.3 km/h 27.4 km/h 71% 0 mm
23:04 -17.3 °C -21.3 °C 1023.9 hPa West 8 km/h 19.3 km/h 71% 0 mm
23:09 -17.2 °C -21.2 °C 1023.9 hPa West 9.7 km/h 19.3 km/h 71% 0 mm
23:14 -17.1 °C -20.9 °C 1023.9 hPa West 11.3 km/h 25.7 km/h 72% 0 mm
23:19 -17 °C -20.8 °C 1023.9 hPa WSW 12.9 km/h 22.5 km/h 72% 0 mm
23:24 -16.9 °C -20.7 °C 1023.9 hPa West 16.1 km/h 22.5 km/h 72% 0 mm
23:29 -16.8 °C -20.7 °C 1023.9 hPa West 12.9 km/h 22.5 km/h 72% 0 mm
23:34 -16.8 °C -20.7 °C 1023.9 hPa West 12.9 km/h 22.5 km/h 72% 0 mm
23:39 -16.8 °C -20.7 °C 1023.9 hPa West 12.9 km/h 27.4 km/h 72% 0 mm
23:44 -16.7 °C -20.6 °C 1023.6 hPa WNW 8 km/h 25.7 km/h 72% 0 mm
23:49 -16.7 °C -20.6 °C 1023.2 hPa SW 11.3 km/h 29 km/h 72% 0 mm
23:54 -16.7 °C -20.4 °C 1023.2 hPa West 4.8 km/h 27.4 km/h 73% 0 mm
Buffalo, New York, USA
Compliments of Weather Underground - 2.25 mb